Preview an experimental upcoming version of this site at Beta.AviationWeather.gov

METAR Data
IDs: Format: Raw Decoded Include TAF

Data at: 1414 UTC 03 Oct 2023

METAR for:KIOW (Iowa City Muni, IA, US)
Text:KIOW 031352Z AUTO 13005KT 10SM CLR 18/14 A3009 RMK AO2 SLP186 T01830144
Temperature: 18.3°C ( 65°F)
Dewpoint: 14.4°C ( 58°F) [RH = 78%]
Pressure (altimeter):30.09 inches Hg (1019.0 mb) [Sea level pressure: 1018.6 mb]
Winds:from the SE (130 degrees) at 6 MPH (5 knots; 2.6 m/s)
Visibility:10 or more sm (16+ km)
Ceiling:at least 12,000 feet AGL
Clouds:sky clear below 12,000 feet AGL
QC Flag:automated observation with no human augmentation